Time;durP1;ratioP1;P1;durP2;ratioP2;P2;SDS_P1;SDS_P2;PMS_P1;PMS_P2;Temp;Humidity;BMP_temperature;BMP_pressure;BME280_temperature;BME280_humidity;BME280_pressure;Samples;Min_cycle;Max_cycle;Signal;HPM_P1;HPM_P2
2022/12/28 00:01:27;;;;;;;3.35;0.77;;;7.40;99.90;;;;;;4988093;28;20054;-58
2022/12/28 00:03:58;;;;;;;3.13;0.50;;;7.40;99.90;;;;;;4988217;28;20058;-63
2022/12/28 00:06:26;;;;;;;2.30;0.55;;;7.40;99.90;;;;;;4986578;28;20038;-60
2022/12/28 00:08:55;;;;;;;1.30;0.50;;;7.40;99.90;;;;;;4988106;28;20046;-60
2022/12/28 00:11:25;;;;;;;7.55;1.00;;;7.40;99.90;;;;;;4987376;28;20051;-59
2022/12/28 00:13:59;;;;;;;3.78;0.60;;;7.40;99.90;;;;;;4992123;28;20050;-59
2022/12/28 00:16:28;;;;;;;1.48;0.80;;;7.40;99.90;;;;;;4986433;28;20401;-63
2022/12/28 00:18:58;;;;;;;2.90;0.68;;;7.40;99.90;;;;;;4986967;28;20057;-61
2022/12/28 00:21:27;;;;;;;4.43;0.60;;;7.40;99.90;;;;;;4988022;28;20393;-63
2022/12/28 00:23:57;;;;;;;3.97;0.50;;;7.40;99.90;;;;;;4987317;28;20057;-59
2022/12/28 00:26:29;;;;;;;3.78;0.88;;;7.40;99.90;;;;;;5018450;28;20046;-58
2022/12/28 00:28:57;;;;;;;2.58;0.75;;;7.50;99.90;;;;;;4988650;28;20050;-65
2022/12/28 00:31:32;;;;;;;3.33;0.70;;;7.40;99.90;;;;;;4989427;28;20054;-59
2022/12/28 00:34:01;;;;;;;2.83;0.70;;;7.40;99.90;;;;;;5021054;28;20043;-59
2022/12/28 00:36:30;;;;;;;2.78;0.60;;;7.40;99.90;;;;;;4990035;28;20042;-65
2022/12/28 00:39:21;;;;;;;3.10;0.70;;;7.40;99.90;;;;;;5003250;28;20049;-60
2022/12/28 00:41:48;;;;;;;11.15;1.55;;;7.40;99.90;;;;;;4991417;28;20045;-63
2022/12/28 00:44:16;;;;;;;10.25;1.48;;;7.40;99.90;;;;;;5004205;28;20047;-60
2022/12/28 00:46:44;;;;;;;1.98;0.85;;;7.40;99.90;;;;;;5002183;28;20049;-64
2022/12/28 00:49:11;;;;;;;3.30;1.10;;;7.40;99.90;;;;;;4989416;28;20498;-62
2022/12/28 00:51:39;;;;;;;3.42;1.10;;;7.40;99.90;;;;;;4989749;28;20057;-63
2022/12/28 00:54:07;;;;;;;6.05;1.00;;;7.30;99.90;;;;;;4992642;28;20046;-58
2022/12/28 00:56:34;;;;;;;6.30;1.17;;;7.30;99.90;;;;;;5019797;28;20061;-62
2022/12/28 00:59:02;;;;;;;5.70;1.73;;;7.30;99.90;;;;;;4990579;28;20046;-64
2022/12/28 01:01:30;;;;;;;8.95;1.17;;;7.30;99.90;;;;;;4979401;28;20061;-59
2022/12/28 01:03:58;;;;;;;1.65;0.70;;;7.20;99.90;;;;;;4975167;28;20058;-64
2022/12/28 01:06:27;;;;;;;6.00;1.27;;;7.10;99.90;;;;;;4986989;28;20510;-63
2022/12/28 01:08:55;;;;;;;3.65;1.02;;;7.00;99.90;;;;;;4988488;28;20050;-63
2022/12/28 01:11:25;;;;;;;2.97;0.57;;;6.90;99.90;;;;;;5022048;28;20057;-63
2022/12/28 01:13:55;;;;;;;2.85;0.75;;;6.90;99.90;;;;;;4993936;28;20073;-63
2022/12/28 01:16:27;;;;;;;3.55;1.13;;;6.80;99.90;;;;;;4989013;28;20042;-64
2022/12/28 01:18:57;;;;;;;4.82;0.90;;;6.70;99.90;;;;;;4985039;28;20057;-65
2022/12/28 01:21:27;;;;;;;5.32;0.93;;;6.60;99.90;;;;;;4985420;28;20054;-63
2022/12/28 01:24:00;;;;;;;2.15;1.00;;;6.60;99.90;;;;;;4986933;28;20050;-64
2022/12/28 01:26:28;;;;;;;5.30;1.17;;;6.60;99.90;;;;;;4985149;28;20046;-59
2022/12/28 01:28:57;;;;;;;2.88;0.77;;;6.60;99.90;;;;;;4987702;28;20046;-62
2022/12/28 01:31:25;;;;;;;2.72;1.00;;;6.60;99.90;;;;;;4986707;28;20051;-59
2022/12/28 01:33:54;;;;;;;4.68;1.20;;;6.60;99.90;;;;;;4987503;28;20057;-59
2022/12/28 01:36:24;;;;;;;8.90;0.70;;;6.60;99.90;;;;;;4984630;28;20073;-58
2022/12/28 01:38:55;;;;;;;8.93;1.17;;;6.60;99.90;;;;;;5003108;28;20051;-59
2022/12/28 01:41:25;;;;;;;4.65;1.17;;;6.70;99.90;;;;;;5016834;28;20469;-59
2022/12/28 01:43:52;;;;;;;7.45;1.00;;;6.70;99.90;;;;;;4987160;28;20038;-58
2022/12/28 01:46:38;;;;;;;7.43;1.13;;;6.70;99.90;;;;;;4982558;28;20070;-59
2022/12/28 01:49:15;;;;;;;4.50;0.95;;;6.80;99.90;;;;;;4985656;28;20050;-59
2022/12/28 01:52:05;;;;;;;8.00;1.13;;;6.80;99.90;;;;;;4987078;28;20058;-61
2022/12/28 01:54:38;;;;;;;12.32;1.63;;;6.80;99.90;;;;;;4980182;28;20051;-61
2022/12/28 01:57:06;;;;;;;10.82;1.13;;;6.80;99.90;;;;;;4987051;28;20054;-59
2022/12/28 01:59:39;;;;;;;13.15;1.20;;;6.80;99.90;;;;;;4987554;28;20150;-58
2022/12/28 02:02:07;;;;;;;8.23;1.17;;;6.80;99.90;;;;;;4978289;28;20471;-61
2022/12/28 02:04:36;;;;;;;11.70;2.03;;;;;;;;;;5001478;28;20058;-58
2022/12/28 02:07:04;;;;;;;7.60;0.90;;;6.80;99.90;;;;;;4990051;28;20053;-59
2022/12/28 02:09:42;;;;;;;6.82;1.27;;;6.80;99.90;;;;;;4990892;28;20042;-58
2022/12/28 02:12:14;;;;;;;6.05;1.02;;;6.70;99.90;;;;;;4983038;28;20053;-59
2022/12/28 02:14:43;;;;;;;9.32;1.00;;;6.70;99.90;;;;;;5022993;28;20042;-60
2022/12/28 02:17:12;;;;;;;5.95;1.15;;;6.70;99.90;;;;;;4988817;28;20049;-60
2022/12/28 02:19:45;;;;;;;4.72;0.70;;;6.70;99.90;;;;;;5004906;28;20034;-56
2022/12/28 02:22:33;;;;;;;4.78;0.82;;;6.60;99.90;;;;;;4988900;28;20042;-58
2022/12/28 02:25:18;;;;;;;13.77;1.55;;;6.60;99.90;;;;;;4999520;28;20054;-58
2022/12/28 02:28:22;;;;;;;12.23;1.20;;;6.60;99.90;;;;;;4985588;28;20066;-58
2022/12/28 02:31:07;;;;;;;7.03;1.25;;;6.50;99.90;;;;;;4995279;28;20042;-59
2022/12/28 02:33:46;;;;;;;11.05;1.33;;;6.50;99.90;;;;;;5019920;28;20054;-60
2022/12/28 02:36:23;;;;;;;7.28;1.05;;;6.50;99.90;;;;;;4990329;28;20047;-59
2022/12/28 02:38:58;;;;;;;6.93;1.10;;;6.50;99.90;;;;;;4989071;28;20509;-59
2022/12/28 02:41:26;;;;;;;3.10;1.00;;;;;;;;;;4989756;28;20047;-61
2022/12/28 02:43:54;;;;;;;8.93;1.02;;;6.40;99.90;;;;;;5017926;28;20609;-58
2022/12/28 02:52:18;;;;;;;13.60;1.60;;;6.40;99.90;;;;;;4986302;28;20054;-59
2022/12/28 02:57:45;;;;;;;8.63;2.08;;;6.40;99.90;;;;;;4992004;28;20058;-61
2022/12/28 03:00:17;;;;;;;8.82;1.15;;;6.40;99.90;;;;;;4990593;28;20352;-62
2022/12/28 03:03:03;;;;;;;13.70;1.70;;;6.40;99.90;;;;;;4987717;28;20394;-59
2022/12/28 03:09:07;;;;;;;12.88;1.90;;;6.40;99.90;;;;;;4990046;28;20508;-60
2022/12/28 03:11:52;;;;;;;13.75;2.92;;;6.50;99.90;;;;;;4999945;28;20049;-60
2022/12/28 03:14:29;;;;;;;14.25;1.90;;;6.50;99.90;;;;;;4996723;28;20069;-63
2022/12/28 03:31:19;;;;;;;10.25;2.08;;;6.60;99.90;;;;;;4988136;28;20038;-62
2022/12/28 03:34:05;;;;;;;5.97;1.40;;;6.60;99.90;;;;;;4988514;28;20041;-62
2022/12/28 03:36:43;;;;;;;9.40;1.67;;;6.60;99.90;;;;;;5002335;28;20425;-63
2022/12/28 03:39:24;;;;;;;12.98;2.47;;;6.70;99.90;;;;;;4987244;28;20054;-59
2022/12/28 03:45:18;;;;;;;16.02;2.00;;;6.70;99.90;;;;;;4987658;28;20597;-62
2022/12/28 03:48:07;;;;;;;19.00;2.25;;;6.70;99.90;;;;;;4988353;28;20041;-63
2022/12/28 03:50:38;;;;;;;11.27;2.47;;;6.70;99.90;;;;;;4986061;28;20050;-63
2022/12/28 03:53:08;;;;;;;19.48;3.03;;;6.80;99.90;;;;;;4989075;28;20054;-64
2022/12/28 03:55:39;;;;;;;16.08;2.38;;;6.80;99.90;;;;;;4987294;28;20039;-64
2022/12/28 03:58:07;;;;;;;15.55;2.28;;;6.70;99.90;;;;;;4990718;28;20054;-64
2022/12/28 04:00:36;;;;;;;9.85;1.70;;;6.80;99.90;;;;;;4988674;28;20051;-63
2022/12/28 04:03:04;;;;;;;17.50;1.70;;;6.80;99.90;;;;;;4991898;28;20383;-58
2022/12/28 04:05:34;;;;;;;9.27;1.67;;;6.80;99.90;;;;;;5025728;28;20054;-57
2022/12/28 04:08:02;;;;;;;8.30;1.60;;;6.80;99.90;;;;;;4995631;28;20053;-58
2022/12/28 04:10:29;;;;;;;13.23;1.63;;;6.80;99.90;;;;;;4993734;28;20043;-60
2022/12/28 04:12:57;;;;;;;18.45;2.50;;;6.80;99.90;;;;;;5014054;28;20066;-58
2022/12/28 04:15:30;;;;;;;8.32;2.17;;;6.80;99.90;;;;;;5006174;28;20394;-59
2022/12/28 04:18:00;;;;;;;15.00;2.33;;;6.80;99.90;;;;;;4992970;28;20050;-57
2022/12/28 04:20:28;;;;;;;11.05;1.20;;;6.80;99.90;;;;;;4997371;28;20671;-57
2022/12/28 04:22:56;;;;;;;6.72;1.38;;;6.70;99.90;;;;;;4991281;28;20049;-60
2022/12/28 04:25:24;;;;;;;9.82;1.40;;;6.80;99.90;;;;;;5004831;28;20047;-59
2022/12/28 04:27:52;;;;;;;7.72;1.95;;;6.70;99.90;;;;;;4992612;28;20053;-57
2022/12/28 04:30:40;;;;;;;13.70;2.38;;;6.70;99.90;;;;;;4990675;28;20054;-59
2022/12/28 04:33:07;;;;;;;8.63;1.80;;;6.60;99.90;;;;;;4990257;28;20045;-57
2022/12/28 04:35:35;;;;;;;11.73;1.50;;;6.60;99.90;;;;;;4989193;28;20046;-57
2022/12/28 04:38:03;;;;;;;12.85;1.67;;;6.50;99.90;;;;;;5022920;28;20053;-57
2022/12/28 04:40:30;;;;;;;8.20;1.50;;;6.50;99.90;;;;;;4991822;28;20058;-58
2022/12/28 04:42:58;;;;;;;11.20;2.45;;;6.40;99.90;;;;;;4993157;28;20038;-60
2022/12/28 04:45:26;;;;;;;14.43;1.70;;;6.40;99.90;;;;;;4989565;28;20058;-60
2022/12/28 04:47:57;;;;;;;8.75;1.40;;;6.40;99.90;;;;;;5023066;28;20042;-59
2022/12/28 04:50:25;;;;;;;9.68;2.08;;;6.30;99.90;;;;;;4997359;28;20130;-60
2022/12/28 04:52:53;;;;;;;16.58;2.17;;;6.30;99.90;;;;;;4991164;28;20054;-59
2022/12/28 04:55:21;;;;;;;18.50;2.15;;;6.30;99.90;;;;;;4989771;28;20038;-59
2022/12/28 04:57:59;;;;;;;7.85;1.73;;;6.30;99.90;;;;;;4989400;28;20050;-59
2022/12/28 05:00:27;;;;;;;8.63;1.45;;;6.30;99.90;;;;;;4990390;28;20054;-59
2022/12/28 05:02:58;;;;;;;8.80;1.42;;;6.30;99.90;;;;;;4992246;28;20054;-59
2022/12/28 05:05:27;;;;;;;8.70;1.65;;;6.30;99.90;;;;;;4987417;28;20046;-59
2022/12/28 05:07:59;;;;;;;9.88;1.40;;;6.30;99.90;;;;;;4985961;28;20053;-58
2022/12/28 05:10:28;;;;;;;13.18;1.95;;;6.30;99.90;;;;;;4990157;28;20394;-59
2022/12/28 05:12:56;;;;;;;12.38;1.38;;;6.30;99.90;;;;;;4985550;28;20046;-59
2022/12/28 05:15:23;;;;;;;9.55;1.40;;;6.30;99.90;;;;;;4991600;28;20390;-59
2022/12/28 05:17:53;;;;;;;12.07;1.85;;;6.30;99.90;;;;;;4991640;28;20402;-58
2022/12/28 05:20:20;;;;;;;8.98;1.40;;;6.30;99.90;;;;;;4991664;28;20051;-59
2022/12/28 05:22:48;;;;;;;12.60;1.50;;;6.30;99.90;;;;;;4989770;28;20051;-58
2022/12/28 05:25:16;;;;;;;5.25;1.17;;;6.30;99.90;;;;;;4988173;28;20049;-59
2022/12/28 05:27:43;;;;;;;6.07;1.25;;;6.20;99.90;;;;;;4989516;28;20065;-64
2022/12/28 05:30:11;;;;;;;5.20;1.17;;;6.20;99.90;;;;;;5001994;28;20054;-64
2022/12/28 05:32:38;;;;;;;5.38;1.30;;;6.20;99.90;;;;;;4990646;28;20046;-62
2022/12/28 05:35:06;;;;;;;14.48;1.95;;;6.30;99.90;;;;;;4988807;28;20126;-62
2022/12/28 05:37:34;;;;;;;4.18;1.38;;;6.30;99.90;;;;;;4990640;28;20046;-64
2022/12/28 05:40:02;;;;;;;8.35;1.33;;;6.30;99.90;;;;;;4989425;28;20050;-63
2022/12/28 05:42:30;;;;;;;6.65;1.13;;;6.30;99.90;;;;;;4992124;28;20414;-64
2022/12/28 05:44:58;;;;;;;8.27;1.90;;;6.30;99.90;;;;;;4988733;28;20043;-65
2022/12/28 05:47:26;;;;;;;7.95;1.50;;;6.30;99.90;;;;;;4983027;28;20050;-64
2022/12/28 05:49:54;;;;;;;6.65;1.08;;;6.30;99.90;;;;;;4986072;28;20050;-64
2022/12/28 05:52:21;;;;;;;15.90;1.65;;;6.30;99.90;;;;;;5017937;28;20046;-63
2022/12/28 05:54:49;;;;;;;9.05;1.38;;;6.20;99.90;;;;;;4985977;28;20042;-63
2022/12/28 05:57:17;;;;;;;8.80;1.45;;;6.30;99.90;;;;;;4984898;28;20046;-62
2022/12/28 05:59:44;;;;;;;10.65;1.45;;;6.20;99.90;;;;;;4987575;28;20042;-63
2022/12/28 06:02:12;;;;;;;9.13;2.08;;;6.20;99.90;;;;;;4982875;28;20180;-64
2022/12/28 06:04:40;;;;;;;12.55;1.17;;;6.20;99.90;;;;;;4982997;28;20043;-63
2022/12/28 06:07:07;;;;;;;15.52;1.75;;;6.20;99.90;;;;;;4979688;28;20047;-60
2022/12/28 06:09:35;;;;;;;10.13;1.30;;;6.20;99.90;;;;;;4984756;28;20050;-65
2022/12/28 06:12:03;;;;;;;6.97;1.52;;;6.20;99.90;;;;;;4988259;28;20057;-59
2022/12/28 06:14:31;;;;;;;10.18;1.38;;;6.10;99.90;;;;;;4994829;28;20042;-61
2022/12/28 06:16:58;;;;;;;12.98;1.85;;;6.10;99.90;;;;;;4986070;28;20057;-60
2022/12/28 06:19:26;;;;;;;14.20;1.55;;;6.10;99.90;;;;;;4985615;28;20050;-65
2022/12/28 06:21:54;;;;;;;16.05;1.70;;;6.10;99.90;;;;;;4985804;28;20046;-64
2022/12/28 06:24:24;;;;;;;9.48;1.88;;;6.10;99.90;;;;;;4984531;28;20069;-64
2022/12/28 06:26:52;;;;;;;9.55;2.35;;;6.10;99.90;;;;;;4987184;28;20046;-64
2022/12/28 06:29:20;;;;;;;12.15;1.58;;;6.10;99.90;;;;;;4989662;28;20517;-64
2022/12/28 06:31:50;;;;;;;8.48;1.40;;;6.10;99.90;;;;;;4987828;28;20050;-64
2022/12/28 06:34:17;;;;;;;5.47;1.65;;;6.10;99.90;;;;;;4997313;28;20042;-62
2022/12/28 06:36:45;;;;;;;10.00;1.23;;;6.10;99.90;;;;;;4984691;28;20054;-63
2022/12/28 06:39:13;;;;;;;11.23;1.58;;;6.00;99.90;;;;;;4985960;28;20054;-60
2022/12/28 06:41:41;;;;;;;6.90;1.00;;;6.00;99.90;;;;;;4988930;28;20042;-62
2022/12/28 06:44:11;;;;;;;7.95;1.52;;;6.00;99.90;;;;;;4989305;28;20490;-60
2022/12/28 06:46:39;;;;;;;11.68;2.10;;;6.00;99.90;;;;;;4983328;28;20041;-59
2022/12/28 06:49:06;;;;;;;6.10;2.05;;;6.00;99.90;;;;;;4983687;28;20042;-59
2022/12/28 06:51:39;;;;;;;9.35;1.83;;;6.10;99.90;;;;;;4986047;28;20049;-59
2022/12/28 06:54:08;;;;;;;8.50;1.55;;;6.00;99.90;;;;;;4984533;28;20046;-59
2022/12/28 06:56:37;;;;;;;17.25;1.58;;;6.10;99.90;;;;;;4985981;28;20055;-60
2022/12/28 06:59:05;;;;;;;6.97;1.48;;;6.10;99.90;;;;;;5004369;28;20494;-60
2022/12/28 07:01:39;;;;;;;13.27;1.98;;;6.10;99.90;;;;;;4991503;28;20410;-59
2022/12/28 07:04:09;;;;;;;7.90;1.67;;;6.10;99.90;;;;;;4984580;28;20656;-59
2022/12/28 07:06:39;;;;;;;6.72;1.30;;;6.20;99.90;;;;;;4996100;28;20053;-58
2022/12/28 07:09:11;;;;;;;12.90;2.33;;;6.20;99.90;;;;;;4984446;28;20043;-59
2022/12/28 07:11:38;;;;;;;4.97;1.60;;;6.20;99.90;;;;;;4986493;28;20521;-59
2022/12/28 07:14:06;;;;;;;14.43;2.30;;;6.20;99.90;;;;;;4985426;28;20053;-59
2022/12/28 07:16:34;;;;;;;7.55;1.70;;;6.20;99.90;;;;;;4984882;28;20034;-59
2022/12/28 07:19:01;;;;;;;6.72;1.08;;;6.20;99.90;;;;;;4986445;28;20035;-58
2022/12/28 07:21:32;;;;;;;12.75;1.63;;;6.20;99.90;;;;;;4985774;28;20046;-58
2022/12/28 07:24:00;;;;;;;11.15;1.13;;;6.20;99.90;;;;;;4983717;28;20067;-60
2022/12/28 07:26:29;;;;;;;8.65;1.92;;;6.20;99.90;;;;;;4998201;28;20454;-59
2022/12/28 07:29:00;;;;;;;9.75;1.65;;;6.20;99.90;;;;;;4983928;28;20054;-61
2022/12/28 07:31:30;;;;;;;8.50;1.42;;;6.20;99.90;;;;;;4983571;28;20438;-60
2022/12/28 07:33:59;;;;;;;8.52;1.45;;;6.20;99.90;;;;;;4982561;28;20076;-60
2022/12/28 07:36:29;;;;;;;8.90;1.65;;;6.20;99.90;;;;;;4982729;28;20058;-59
2022/12/28 07:38:57;;;;;;;7.40;1.38;;;6.20;99.90;;;;;;4982971;28;20046;-59
2022/12/28 07:41:31;;;;;;;7.57;1.40;;;6.20;99.90;;;;;;4977252;28;20047;-60
2022/12/28 07:43:59;;;;;;;9.88;2.10;;;6.20;99.90;;;;;;4981200;28;20229;-59
2022/12/28 07:46:29;;;;;;;11.43;1.70;;;6.20;99.90;;;;;;4982790;28;20525;-59
2022/12/28 07:48:57;;;;;;;11.48;1.33;;;6.30;99.90;;;;;;4985504;28;20042;-59
2022/12/28 07:51:36;;;;;;;3.75;1.42;;;6.30;99.90;;;;;;4984301;28;20050;-57
2022/12/28 07:54:04;;;;;;;11.43;2.67;;;6.30;99.90;;;;;;4983810;28;20057;-63
2022/12/28 07:56:32;;;;;;;7.60;1.50;;;6.30;99.90;;;;;;4981477;28;20490;-63
2022/12/28 07:59:01;;;;;;;4.97;1.25;;;6.30;99.90;;;;;;4986971;28;20107;-58
2022/12/28 08:01:31;;;;;;;;;;;6.30;99.90;;;;;;4986689;28;20057;-58
2022/12/28 08:04:01;;;;;;;7.43;1.90;;;6.30;99.90;;;;;;4983387;28;19930;-60
2022/12/28 08:06:29;;;;;;;;;;;6.30;99.90;;;;;;4973781;28;20052;-62
2022/12/28 08:08:59;;;;;;;6.38;1.67;;;6.30;99.90;;;;;;4985216;28;19948;-58
2022/12/28 08:11:32;;;;;;;16.73;2.28;;;6.40;99.90;;;;;;4984907;28;20065;-59
2022/12/28 08:14:01;;;;;;;13.43;2.20;;;6.30;99.90;;;;;;4985790;28;20050;-59
2022/12/28 08:16:31;;;;;;;7.38;2.20;;;6.40;99.90;;;;;;4978485;28;20039;-59
2022/12/28 08:18:59;;;;;;;6.63;2.08;;;6.40;99.90;;;;;;4984096;28;20215;-63
2022/12/28 08:21:35;;;;;;;10.85;2.58;;;6.50;99.90;;;;;;4985510;28;20527;-60
2022/12/28 08:24:04;;;;;;;10.68;4.20;;;6.50;99.90;;;;;;4982577;28;20046;-61
2022/12/28 08:26:38;;;;;;;15.55;3.47;;;6.50;99.90;;;;;;4982344;28;20055;-62
2022/12/28 08:29:10;;;;;;;9.70;3.20;;;6.50;99.90;;;;;;4980669;28;20100;-60
2022/12/28 08:31:40;;;;;;;13.75;3.90;;;6.60;99.90;;;;;;4981127;28;20042;-62
2022/12/28 08:34:10;;;;;;;;;;;6.60;99.90;;;;;;4981600;28;20609;-60
2022/12/28 08:36:37;;;;;;;;;;;6.60;99.90;;;;;;4976703;28;20266;-62
2022/12/28 08:39:06;;;;;;;13.65;4.65;;;6.70;99.90;;;;;;4983713;28;19922;-63
2022/12/28 08:41:34;;;;;;;14.63;4.95;;;6.70;99.90;;;;;;4979312;28;20046;-60
2022/12/28 08:44:02;;;;;;;10.10;4.53;;;6.80;99.90;;;;;;4992730;28;20498;-62
2022/12/28 08:46:33;;;;;;;9.73;4.60;;;6.90;99.90;;;;;;4977910;28;20054;-63
2022/12/28 08:49:02;;;;;;;17.20;6.93;;;6.80;99.90;;;;;;4986182;28;20050;-60
2022/12/28 08:51:40;;;;;;;17.70;5.35;;;6.90;99.90;;;;;;4986138;28;20050;-63
2022/12/28 08:54:11;;;;;;;11.73;4.85;;;6.90;99.90;;;;;;4984763;28;20050;-62
2022/12/28 08:56:41;;;;;;;9.35;4.72;;;7.00;99.90;;;;;;4978217;28;20051;-63
2022/12/28 08:59:15;;;;;;;7.68;4.43;;;7.00;99.90;;;;;;4987823;28;20050;-64
2022/12/28 09:01:43;;;;;;;15.27;3.95;;;7.10;99.90;;;;;;4984176;28;20050;-64
2022/12/28 09:04:15;;;;;;;9.35;4.05;;;7.10;99.90;;;;;;5001560;28;20049;-62
2022/12/28 09:06:43;;;;;;;14.57;4.13;;;7.20;99.90;;;;;;4988308;28;20054;-62
2022/12/28 09:09:13;;;;;;;14.88;4.93;;;7.20;99.90;;;;;;4985891;28;20425;-64
2022/12/28 09:11:42;;;;;;;13.75;3.60;;;7.20;99.90;;;;;;4987813;28;20049;-59
2022/12/28 09:14:11;;;;;;;14.27;4.47;;;7.30;99.90;;;;;;4984869;28;20054;-59
2022/12/28 09:16:50;;;;;;;7.47;3.60;;;7.40;99.90;;;;;;4983731;28;20405;-59
2022/12/28 09:19:18;;;;;;;5.00;2.60;;;7.40;99.90;;;;;;4986999;28;20058;-58
2022/12/28 09:21:47;;;;;;;10.35;2.95;;;7.40;99.90;;;;;;4988389;28;20042;-58
2022/12/28 09:24:16;;;;;;;7.85;2.60;;;7.50;99.90;;;;;;4982669;28;20042;-57
2022/12/28 09:26:43;;;;;;;6.88;3.05;;;7.60;99.90;;;;;;4987114;28;20049;-57
2022/12/28 09:29:12;;;;;;;7.30;2.63;;;7.60;99.90;;;;;;4984978;28;20050;-58
2022/12/28 09:31:41;;;;;;;4.57;2.17;;;7.70;99.90;;;;;;4980156;28;20055;-57
2022/12/28 09:34:11;;;;;;;5.00;2.13;;;7.80;99.90;;;;;;4981621;28;20047;-58
2022/12/28 09:36:59;;;;;;;4.53;2.22;;;7.90;99.90;;;;;;4983534;28;20065;-58
2022/12/28 09:39:27;;;;;;;4.93;1.98;;;7.90;99.90;;;;;;4985304;28;20054;-58
2022/12/28 09:42:36;;;;;;;7.22;2.60;;;8.00;99.90;;;;;;4987628;28;20046;-62
2022/12/28 09:45:09;;;;;;;2.75;1.40;;;8.10;99.90;;;;;;4962229;28;20054;-58
2022/12/28 09:47:46;;;;;;;7.57;2.17;;;8.10;99.90;;;;;;4950957;28;20047;-59
2022/12/28 09:50:17;;;;;;;9.57;2.17;;;8.20;99.90;;;;;;4974474;28;20050;-60
2022/12/28 09:53:14;;;;;;;5.07;1.73;;;8.30;99.90;;;;;;4980992;28;20053;-58
2022/12/28 09:56:05;;;;;;;4.32;1.58;;;8.30;99.90;;;;;;4988013;28;20058;-57
2022/12/28 09:58:38;;;;;;;5.63;1.75;;;8.40;99.90;;;;;;4981947;28;20637;-58
2022/12/28 10:01:15;;;;;;;3.95;1.50;;;8.40;99.90;;;;;;4981591;28;21802;-60
2022/12/28 10:03:45;;;;;;;5.03;2.40;;;8.50;99.90;;;;;;4976870;28;20043;-57
2022/12/28 10:06:19;;;;;;;4.00;1.42;;;8.50;99.90;;;;;;4983803;28;20091;-58
2022/12/28 10:08:50;;;;;;;2.72;1.23;;;8.60;99.90;;;;;;4977277;28;20065;-59
2022/12/28 10:11:24;;;;;;;3.10;1.40;;;8.60;99.90;;;;;;4985252;28;20108;-57
2022/12/28 10:13:56;;;;;;;5.15;1.40;;;8.70;99.90;;;;;;5000158;28;20486;-57
2022/12/28 10:16:33;;;;;;;3.85;1.40;;;8.70;99.90;;;;;;5014898;28;20035;-58
2022/12/28 10:19:04;;;;;;;3.03;1.52;;;8.80;99.90;;;;;;4982659;28;20548;-58
2022/12/28 10:21:33;;;;;;;2.00;1.05;;;8.80;99.90;;;;;;4983934;28;20043;-59
2022/12/28 10:24:04;;;;;;;3.25;1.02;;;8.90;99.90;;;;;;4984533;28;20403;-57
2022/12/28 10:26:54;;;;;;;1.88;1.23;;;8.80;99.90;;;;;;4982531;28;20430;-60
2022/12/28 10:29:22;;;;;;;1.77;0.85;;;8.90;99.90;;;;;;4983666;28;20490;-57
2022/12/28 10:32:05;;;;;;;1.35;1.20;;;9.00;99.90;;;;;;4979991;28;20046;-58
2022/12/28 10:34:35;;;;;;;1.02;0.90;;;9.00;99.90;;;;;;4981225;28;21135;-57
2022/12/28 10:37:12;;;;;;;0.80;0.70;;;9.10;99.90;;;;;;4988475;28;20054;-57
2022/12/28 10:39:53;;;;;;;1.27;0.95;;;9.00;99.90;;;;;;4986816;28;20054;-57
2022/12/28 10:42:42;;;;;;;2.78;0.73;;;9.10;99.90;;;;;;5004428;28;20556;-57
2022/12/28 10:45:23;;;;;;;0.60;0.60;;;9.10;99.90;;;;;;4986231;28;20043;-59
2022/12/28 10:47:54;;;;;;;0.98;0.60;;;9.10;99.90;;;;;;4970615;28;20046;-58
2022/12/28 10:50:45;;;;;;;1.08;0.50;;;9.10;99.90;;;;;;4985284;28;20053;-57
2022/12/28 10:53:40;;;;;;;0.40;0.40;;;9.10;99.90;;;;;;4989803;28;20053;-58
2022/12/28 10:56:13;;;;;;;0.60;0.40;;;9.10;99.90;;;;;;4987602;28;20050;-58
2022/12/28 10:58:46;;;;;;;1.08;0.30;;;9.20;99.90;;;;;;4987446;28;20042;-59
2022/12/28 11:01:16;;;;;;;;;;;9.20;99.90;;;;;;4988797;28;20545;-59
2022/12/28 11:04:05;;;;;;;0.82;0.82;;;9.20;99.90;;;;;;5021252;28;19921;-59
2022/12/28 11:06:51;;;;;;;0.93;0.60;;;9.20;99.90;;;;;;4987239;28;20057;-58
2022/12/28 11:09:24;;;;;;;1.63;0.40;;;9.20;99.90;;;;;;4987104;28;20650;-59
2022/12/28 11:11:54;;;;;;;2.70;0.40;;;9.20;99.90;;;;;;4992745;28;20050;-62
2022/12/28 11:14:36;;;;;;;0.63;0.40;;;9.20;99.90;;;;;;4990869;28;20850;-60
2022/12/28 11:17:25;;;;;;;3.40;0.75;;;9.20;99.90;;;;;;4988203;28;20375;-58
2022/12/28 11:19:56;;;;;;;1.00;0.40;;;9.20;99.90;;;;;;4987203;28;20065;-59
2022/12/28 11:22:27;;;;;;;2.30;0.65;;;9.30;99.90;;;;;;4987426;28;20049;-60
2022/12/28 11:24:58;;;;;;;0.38;0.30;;;9.20;99.90;;;;;;4989222;28;20047;-64
2022/12/28 11:27:26;;;;;;;3.00;1.25;;;9.30;99.90;;;;;;4989588;28;20049;-64
2022/12/28 11:29:54;;;;;;;3.03;0.70;;;9.20;99.90;;;;;;5008307;28;20050;-63
2022/12/28 11:32:29;;;;;;;3.95;0.77;;;9.30;99.90;;;;;;4990417;28;20050;-64
2022/12/28 11:34:58;;;;;;;1.00;0.47;;;9.30;99.90;;;;;;4988144;28;20038;-62
2022/12/28 11:37:26;;;;;;;0.30;0.30;;;9.30;99.90;;;;;;4986910;28;20041;-63
2022/12/28 11:39:54;;;;;;;1.17;0.50;;;9.30;99.90;;;;;;4988959;28;20533;-62
2022/12/28 11:42:30;;;;;;;1.00;0.60;;;9.30;99.90;;;;;;4983626;28;20403;-62
2022/12/28 11:45:55;;;;;;;4.53;0.80;;;9.30;99.90;;;;;;5000630;28;20042;-58
2022/12/28 11:48:41;;;;;;;3.50;0.60;;;9.30;99.90;;;;;;4978128;28;20043;-58
2022/12/28 11:51:32;;;;;;;7.00;1.27;;;9.30;99.90;;;;;;4985664;28;20046;-57
2022/12/28 11:54:36;;;;;;;2.97;0.60;;;9.30;99.90;;;;;;4988707;28;20050;-58
2022/12/28 11:57:04;;;;;;;3.13;0.98;;;9.30;99.90;;;;;;4986683;28;20072;-59
2022/12/28 11:59:34;;;;;;;1.48;0.60;;;9.30;99.90;;;;;;4987148;28;20621;-58
2022/12/28 12:02:07;;;;;;;3.83;1.10;;;9.30;99.90;;;;;;4982585;28;20655;-59
2022/12/28 12:04:37;;;;;;;4.13;0.85;;;9.30;99.90;;;;;;4985240;28;20061;-58
2022/12/28 12:07:13;;;;;;;2.08;1.10;;;9.30;99.90;;;;;;4999477;28;20058;-59
2022/12/28 12:09:44;;;;;;;1.63;0.77;;;9.30;99.90;;;;;;4986920;28;20050;-61
2022/12/28 12:12:14;;;;;;;4.72;0.77;;;9.30;99.90;;;;;;4996176;28;20398;-59
2022/12/28 12:14:50;;;;;;;2.00;0.82;;;9.30;99.90;;;;;;4999770;28;20049;-61
2022/12/28 12:17:31;;;;;;;4.13;1.08;;;9.30;99.90;;;;;;4981108;28;20050;-59
2022/12/28 12:20:41;;;;;;;5.85;0.85;;;9.30;99.90;;;;;;4987074;28;20049;-59
2022/12/28 12:23:34;;;;;;;1.42;0.65;;;9.40;99.90;;;;;;4974879;28;20542;-60
2022/12/28 12:26:37;;;;;;;4.03;1.00;;;9.40;99.90;;;;;;4990932;28;20425;-60
2022/12/28 12:29:28;;;;;;;2.10;0.70;;;9.30;99.90;;;;;;4990762;28;20038;-65
2022/12/28 12:32:09;;;;;;;2.97;0.70;;;9.40;99.90;;;;;;4992210;28;20046;-59
2022/12/28 12:34:54;;;;;;;2.78;0.73;;;9.40;99.90;;;;;;4990803;28;20042;-59
2022/12/28 12:37:56;;;;;;;1.40;0.50;;;9.40;99.90;;;;;;4979087;28;20516;-59
2022/12/28 12:40:51;;;;;;;3.40;0.80;;;9.40;99.90;;;;;;4990604;28;20030;-59
2022/12/28 12:43:29;;;;;;;2.88;0.70;;;9.40;99.90;;;;;;4975849;28;20054;-58
2022/12/28 12:46:24;;;;;;;2.17;0.90;;;9.40;99.90;;;;;;4986636;28;20048;-57
2022/12/28 12:49:21;;;;;;;8.85;1.20;;;9.40;99.90;;;;;;4989215;28;20050;-58
2022/12/28 12:52:15;;;;;;;2.50;0.45;;;9.40;99.90;;;;;;4991708;28;20042;-58
2022/12/28 12:55:01;;;;;;;2.50;0.60;;;9.40;99.90;;;;;;4982863;28;20050;-58
2022/12/28 12:57:35;;;;;;;3.03;0.45;;;9.50;99.90;;;;;;4989987;28;20061;-59
2022/12/28 13:00:15;;;;;;;1.65;0.47;;;9.60;99.90;;;;;;4991637;28;20049;-59
2022/12/28 13:03:19;;;;;;;1.80;0.38;;;9.50;99.90;;;;;;4990707;28;20042;-58
2022/12/28 13:05:53;;;;;;;2.83;0.75;;;9.60;99.90;;;;;;4989397;28;20089;-58
2022/12/28 13:08:32;;;;;;;4.10;0.98;;;9.60;99.90;;;;;;4989734;28;20051;-58
2022/12/28 13:11:00;;;;;;;2.42;0.75;;;9.70;99.90;;;;;;4990092;28;20052;-59
2022/12/28 13:13:34;;;;;;;6.78;1.42;;;9.70;99.90;;;;;;4990367;28;20046;-58
2022/12/28 13:16:07;;;;;;;1.98;0.68;;;9.70;99.90;;;;;;4988276;28;20046;-58
2022/12/28 13:19:03;;;;;;;1.77;0.82;;;9.80;99.90;;;;;;4988195;28;20043;-58
2022/12/28 13:21:45;;;;;;;2.03;0.68;;;9.80;99.90;;;;;;4990492;28;20054;-57
2022/12/28 13:24:26;;;;;;;0.98;0.40;;;9.90;99.90;;;;;;5001889;28;20541;-57
2022/12/28 13:27:02;;;;;;;1.35;0.30;;;9.90;99.90;;;;;;4987004;28;20632;-57
2022/12/28 13:29:52;;;;;;;1.30;0.73;;;9.90;99.90;;;;;;4995253;28;20533;-58
2022/12/28 13:32:27;;;;;;;1.50;0.30;;;9.90;99.90;;;;;;4986640;28;20042;-59
2022/12/28 13:35:23;;;;;;;1.70;0.40;;;10.00;99.90;;;;;;4989747;28;20043;-59
2022/12/28 13:38:17;;;;;;;0.65;0.30;;;10.00;99.90;;;;;;4989848;28;20050;-58
2022/12/28 13:40:52;;;;;;;1.73;0.43;;;10.00;99.90;;;;;;5003057;28;20441;-62
2022/12/28 13:43:44;;;;;;;0.90;0.38;;;10.00;99.90;;;;;;4995204;28;20038;-59
2022/12/28 13:46:20;;;;;;;1.00;0.20;;;10.00;99.90;;;;;;4990228;28;20061;-59
2022/12/28 13:48:51;;;;;;;3.10;0.30;;;10.00;99.90;;;;;;4989770;28;20049;-58
2022/12/28 13:51:20;;;;;;;1.08;0.77;;;10.00;99.90;;;;;;4989782;28;20054;-58
2022/12/28 13:53:53;;;;;;;0.85;0.40;;;10.10;99.90;;;;;;4988989;28;20045;-58
2022/12/28 13:56:22;;;;;;;4.15;0.45;;;10.10;99.90;;;;;;4990083;28;20049;-58
2022/12/28 13:58:54;;;;;;;0.55;0.30;;;10.10;99.90;;;;;;4989854;28;20062;-57